Airfield :
LOGIN :

Register | Disclaimer

   EN    FR    IT 

 










Legend :    VFR   Marginal VFR   IFR   Intensive IFR   Very Intensive IFR
Visi :
Ceiling :
>= 8 km
>= 3000ft
5 to 8 km
1000 to 3000 ft
1500m to 5 km
500 to 1000 ft
800 to 1500m
200 to 500 ft
< 800m
< 200 ft
Symbols :   Thunderstorms  Fog  Heavy snow  Heavy precipitations  Wind > 20 kt
SIGMETs :     Misc.  Thunderstorms  Icing  Turbulence  Mountain Waves  Volcanic Ashes






- Airport Elevation : 141 ft
- IATA code : SKS


EKSP - Srydstrup Vojens

CURRENT METAR :
  • 180850Z 06003KT CAVOK 12/04 Q1023

EXPIRED METARs :
  • 180820Z 06005KT 010V100 CAVOK 11/05 Q1023
  • 180750Z 05005KT 360V080 CAVOK 10/05 Q1023
  • 180720Z 04005KT 010V070 CAVOK 09/04 Q1023
  • 180650Z 04005KT 010V070 CAVOK 08/04 Q1023
  • 180620Z 03004KT 360V060 CAVOK 07/03 Q1023

TAF TAF EKSP
Valid from the 18 at 09:00 until the 19 at 09:00 UTC


180813Z 1809/1909 06008KT 9999 SCT080



MET'MAP, your aeronautical weather chart ! - Copyright ORBIFLY December 2007 - Disclaimer

ORBIFLY MET'MAP TEAM :

Programming & Development : Alexandra Zaïnal
Concept & original design : Baudouin d'Aumeries
Assistance for programming : Marc-Olivier Méhu
Technical & hardware support : Manuel Goepfert

Contact : metmap@orbifly.com




SOURCES & CREDITS :

   NOAA